sensor_id;sensor_type;location;lat;lon;timestamp;temperature;humidity
5466;DHT22;2755;50.728;7.108;2023-06-01T00:01:42;15.80;10.10
5466;DHT22;2755;50.728;7.108;2023-06-01T00:04:08;15.60;10.60
5466;DHT22;2755;50.728;7.108;2023-06-01T00:09:01;15.30;9.30
5466;DHT22;2755;50.728;7.108;2023-06-01T00:11:28;15.10;9.90
5466;DHT22;2755;50.728;7.108;2023-06-01T00:13:54;15.40;12.20
5466;DHT22;2755;50.728;7.108;2023-06-01T00:16:19;15.50;13.90
5466;DHT22;2755;50.728;7.108;2023-06-01T00:18:45;15.30;11.50
5466;DHT22;2755;50.728;7.108;2023-06-01T00:21:11;15.30;14.20
5466;DHT22;2755;50.728;7.108;2023-06-01T00:23:37;15.00;11.90
5466;DHT22;2755;50.728;7.108;2023-06-01T00:26:07;15.50;12.40
5466;DHT22;2755;50.728;7.108;2023-06-01T00:28:33;15.10;12.80
5466;DHT22;2755;50.728;7.108;2023-06-01T00:30:58;14.90;16.20
5466;DHT22;2755;50.728;7.108;2023-06-01T00:38:16;14.80;18.80
5466;DHT22;2755;50.728;7.108;2023-06-01T00:40:42;14.60;17.10
5466;DHT22;2755;50.728;7.108;2023-06-01T00:43:09;14.80;17.50
5466;DHT22;2755;50.728;7.108;2023-06-01T00:45:34;15.50;18.40
5466;DHT22;2755;50.728;7.108;2023-06-01T00:48:00;14.50;17.30
5466;DHT22;2755;50.728;7.108;2023-06-01T00:50:26;14.50;18.10
5466;DHT22;2755;50.728;7.108;2023-06-01T00:52:52;14.40;21.30
5466;DHT22;2755;50.728;7.108;2023-06-01T00:55:20;13.30;18.00
5466;DHT22;2755;50.728;7.108;2023-06-01T00:57:47;14.10;21.50
5466;DHT22;2755;50.728;7.108;2023-06-01T01:00:14;14.70;20.40
5466;DHT22;2755;50.728;7.108;2023-06-01T01:02:40;14.60;20.70
5466;DHT22;2755;50.728;7.108;2023-06-01T01:05:08;14.40;22.20
5466;DHT22;2755;50.728;7.108;2023-06-01T01:07:58;14.60;21.30
5466;DHT22;2755;50.728;7.108;2023-06-01T01:10:31;14.00;24.30
5466;DHT22;2755;50.728;7.108;2023-06-01T01:13:19;14.00;20.90
5466;DHT22;2755;50.728;7.108;2023-06-01T01:16:00;13.90;25.10
5466;DHT22;2755;50.728;7.108;2023-06-01T01:18:51;13.90;22.00
5466;DHT22;2755;50.728;7.108;2023-06-01T01:21:26;13.80;23.90
5466;DHT22;2755;50.728;7.108;2023-06-01T01:29:06;13.50;25.60
5466;DHT22;2755;50.728;7.108;2023-06-01T01:31:34;14.10;28.20
5466;DHT22;2755;50.728;7.108;2023-06-01T01:34:02;14.00;26.10
5466;DHT22;2755;50.728;7.108;2023-06-01T01:36:28;14.00;25.90
5466;DHT22;2755;50.728;7.108;2023-06-01T01:38:55;13.70;25.90
5466;DHT22;2755;50.728;7.108;2023-06-01T01:41:21;13.50;28.70
5466;DHT22;2755;50.728;7.108;2023-06-01T01:43:48;13.20;28.80
5466;DHT22;2755;50.728;7.108;2023-06-01T01:46:25;13.60;26.10
5466;DHT22;2755;50.728;7.108;2023-06-01T01:49:14;13.60;26.20
5466;DHT22;2755;50.728;7.108;2023-06-01T01:54:24;13.30;27.90
5466;DHT22;2755;50.728;7.108;2023-06-01T01:56:53;13.40;27.10
5466;DHT22;2755;50.728;7.108;2023-06-01T01:59:21;13.60;32.00
5466;DHT22;2755;50.728;7.108;2023-06-01T02:01:47;13.60;32.30
5466;DHT22;2755;50.728;7.108;2023-06-01T02:04:13;13.60;33.30
5466;DHT22;2755;50.728;7.108;2023-06-01T02:06:38;13.20;31.50
5466;DHT22;2755;50.728;7.108;2023-06-01T02:09:04;13.30;30.10
5466;DHT22;2755;50.728;7.108;2023-06-01T02:11:34;13.10;29.40
5466;DHT22;2755;50.728;7.108;2023-06-01T02:14:00;13.50;33.40
5466;DHT22;2755;50.728;7.108;2023-06-01T02:16:26;13.60;31.20
5466;DHT22;2755;50.728;7.108;2023-06-01T02:18:52;13.20;29.60
5466;DHT22;2755;50.728;7.108;2023-06-01T02:21:17;13.00;34.20
5466;DHT22;2755;50.728;7.108;2023-06-01T02:23:43;13.20;35.30
5466;DHT22;2755;50.728;7.108;2023-06-01T02:26:09;12.30;31.60
5466;DHT22;2755;50.728;7.108;2023-06-01T02:28:38;13.00;32.60
5466;DHT22;2755;50.728;7.108;2023-06-01T02:31:05;13.00;35.90
5466;DHT22;2755;50.728;7.108;2023-06-01T02:38:23;12.60;35.00
5466;DHT22;2755;50.728;7.108;2023-06-01T02:40:49;13.20;38.70
5466;DHT22;2755;50.728;7.108;2023-06-01T02:43:14;12.70;40.20
5466;DHT22;2755;50.728;7.108;2023-06-01T02:45:40;12.90;41.00
5466;DHT22;2755;50.728;7.108;2023-06-01T02:52:58;12.40;38.00
5466;DHT22;2755;50.728;7.108;2023-06-01T02:55:23;12.50;41.30
5466;DHT22;2755;50.728;7.108;2023-06-01T02:57:49;12.80;41.70
5466;DHT22;2755;50.728;7.108;2023-06-01T03:00:15;12.50;40.40
5466;DHT22;2755;50.728;7.108;2023-06-01T03:02:44;13.40;40.40
5466;DHT22;2755;50.728;7.108;2023-06-01T03:05:11;11.60;41.10
5466;DHT22;2755;50.728;7.108;2023-06-01T03:07:40;12.80;45.60
5466;DHT22;2755;50.728;7.108;2023-06-01T03:10:06;12.10;44.60
5466;DHT22;2755;50.728;7.108;2023-06-01T03:12:32;12.50;40.80
5466;DHT22;2755;50.728;7.108;2023-06-01T03:14:58;12.60;47.40
5466;DHT22;2755;50.728;7.108;2023-06-01T03:17:23;12.40;47.20
5466;DHT22;2755;50.728;7.108;2023-06-01T03:19:49;13.10;47.30
5466;DHT22;2755;50.728;7.108;2023-06-01T03:22:14;11.80;47.60
5466;DHT22;2755;50.728;7.108;2023-06-01T03:24:40;12.70;45.30
5466;DHT22;2755;50.728;7.108;2023-06-01T03:29:33;12.20;48.90
5466;DHT22;2755;50.728;7.108;2023-06-01T03:31:58;12.20;49.00
5466;DHT22;2755;50.728;7.108;2023-06-01T03:34:25;12.20;47.70
5466;DHT22;2755;50.728;7.108;2023-06-01T03:36:52;11.80;50.40
5466;DHT22;2755;50.728;7.108;2023-06-01T03:39:18;12.40;49.40
5466;DHT22;2755;50.728;7.108;2023-06-01T03:41:44;12.40;49.10
5466;DHT22;2755;50.728;7.108;2023-06-01T03:44:11;12.20;51.20
5466;DHT22;2755;50.728;7.108;2023-06-01T03:46:36;12.30;54.70
5466;DHT22;2755;50.728;7.108;2023-06-01T03:49:02;11.70;56.00
5466;DHT22;2755;50.728;7.108;2023-06-01T03:51:28;12.40;57.20
5466;DHT22;2755;50.728;7.108;2023-06-01T03:56:20;12.20;54.20
5466;DHT22;2755;50.728;7.108;2023-06-01T03:58:46;12.40;58.60
5466;DHT22;2755;50.728;7.108;2023-06-01T04:01:12;11.60;56.70
5466;DHT22;2755;50.728;7.108;2023-06-01T04:03:43;12.40;59.70
5466;DHT22;2755;50.728;7.108;2023-06-01T04:06:09;12.10;62.90
5466;DHT22;2755;50.728;7.108;2023-06-01T04:11:17;12.90;58.70
5466;DHT22;2755;50.728;7.108;2023-06-01T04:13:43;12.40;58.30
5466;DHT22;2755;50.728;7.108;2023-06-01T04:16:10;13.00;62.60
5466;DHT22;2755;50.728;7.108;2023-06-01T04:18:35;13.40;61.70
5466;DHT22;2755;50.728;7.108;2023-06-01T04:21:01;12.70;57.90
5466;DHT22;2755;50.728;7.108;2023-06-01T04:23:27;13.10;60.70
5466;DHT22;2755;50.728;7.108;2023-06-01T04:25:52;12.80;59.80
5466;DHT22;2755;50.728;7.108;2023-06-01T04:28:25;12.90;59.20
5466;DHT22;2755;50.728;7.108;2023-06-01T04:30:51;12.40;59.40
5466;DHT22;2755;50.728;7.108;2023-06-01T04:33:17;13.00;59.70
5466;DHT22;2755;50.728;7.108;2023-06-01T04:35:43;13.00;55.70
5466;DHT22;2755;50.728;7.108;2023-06-01T04:38:09;13.20;58.50
5466;DHT22;2755;50.728;7.108;2023-06-01T04:40:35;12.90;58.20
5466;DHT22;2755;50.728;7.108;2023-06-01T04:43:01;12.80;54.20
5466;DHT22;2755;50.728;7.108;2023-06-01T04:45:29;13.60;54.70
5466;DHT22;2755;50.728;7.108;2023-06-01T04:47:59;13.60;57.30
5466;DHT22;2755;50.728;7.108;2023-06-01T04:52:54;14.20;54.80
5466;DHT22;2755;50.728;7.108;2023-06-01T04:57:46;14.60;43.30
5466;DHT22;2755;50.728;7.108;2023-06-01T05:00:13;14.30;41.50
5466;DHT22;2755;50.728;7.108;2023-06-01T05:02:40;15.00;40.30
5466;DHT22;2755;50.728;7.108;2023-06-01T05:05:08;15.20;34.20
5466;DHT22;2755;50.728;7.108;2023-06-01T05:07:34;15.40;30.60
5466;DHT22;2755;50.728;7.108;2023-06-01T05:10:02;16.20;29.40
5466;DHT22;2755;50.728;7.108;2023-06-01T05:12:34;15.90;28.50
5466;DHT22;2755;50.728;7.108;2023-06-01T05:15:01;15.70;28.20
5466;DHT22;2755;50.728;7.108;2023-06-01T05:17:26;16.00;25.50
5466;DHT22;2755;50.728;7.108;2023-06-01T05:19:52;16.30;26.00
5466;DHT22;2755;50.728;7.108;2023-06-01T05:22:17;16.20;21.20
5466;DHT22;2755;50.728;7.108;2023-06-01T05:24:43;17.20;17.90
5466;DHT22;2755;50.728;7.108;2023-06-01T05:27:09;16.40;18.30
5466;DHT22;2755;50.728;7.108;2023-06-01T05:29:34;17.10;16.70
5466;DHT22;2755;50.728;7.108;2023-06-01T05:32:00;17.20;15.00
5466;DHT22;2755;50.728;7.108;2023-06-01T05:34:26;17.30;14.50
5466;DHT22;2755;50.728;7.108;2023-06-01T05:36:52;18.40;16.50
5466;DHT22;2755;50.728;7.108;2023-06-01T05:39:17;17.80;13.80
5466;DHT22;2755;50.728;7.108;2023-06-01T05:41:43;17.90;12.60
5466;DHT22;2755;50.728;7.108;2023-06-01T05:44:09;18.40;11.90
5466;DHT22;2755;50.728;7.108;2023-06-01T05:46:34;18.30;10.30
5466;DHT22;2755;50.728;7.108;2023-06-01T05:49:00;18.80;7.50
5466;DHT22;2755;50.728;7.108;2023-06-01T05:51:26;19.20;6.30
5466;DHT22;2755;50.728;7.108;2023-06-01T05:53:51;18.60;2.30
5466;DHT22;2755;50.728;7.108;2023-06-01T05:56:17;19.60;1.70
5466;DHT22;2755;50.728;7.108;2023-06-01T05:58:43;19.80;2.20
5466;DHT22;2755;50.728;7.108;2023-06-01T06:01:09;20.20;1.00
5466;DHT22;2755;50.728;7.108;2023-06-01T06:03:35;20.10;1.00
5466;DHT22;2755;50.728;7.108;2023-06-01T06:08:27;20.80;1.00
5466;DHT22;2755;50.728;7.108;2023-06-01T06:10:53;20.50;1.00
5466;DHT22;2755;50.728;7.108;2023-06-01T06:13:19;20.40;1.00
5466;DHT22;2755;50.728;7.108;2023-06-01T06:15:44;20.80;1.00
5466;DHT22;2755;50.728;7.108;2023-06-01T06:18:10;20.90;1.00
5466;DHT22;2755;50.728;7.108;2023-06-01T06:25:27;21.00;1.00
5466;DHT22;2755;50.728;7.108;2023-06-01T06:30:19;21.10;1.00
5466;DHT22;2755;50.728;7.108;2023-06-01T06:32:45;21.00;1.00
5466;DHT22;2755;50.728;7.108;2023-06-01T06:37:39;20.90;1.00
5466;DHT22;2755;50.728;7.108;2023-06-01T06:40:06;20.70;1.00
5466;DHT22;2755;50.728;7.108;2023-06-01T06:47:23;21.50;1.00
5466;DHT22;2755;50.728;7.108;2023-06-01T06:49:50;21.90;1.00
5466;DHT22;2755;50.728;7.108;2023-06-01T06:54:43;21.80;1.00
5466;DHT22;2755;50.728;7.108;2023-06-01T06:57:08;21.90;1.00
5466;DHT22;2755;50.728;7.108;2023-06-01T06:59:35;22.00;1.00
5466;DHT22;2755;50.728;7.108;2023-06-01T07:04:28;21.90;1.00
5466;DHT22;2755;50.728;7.108;2023-06-01T07:06:54;22.00;1.00
5466;DHT22;2755;50.728;7.108;2023-06-01T07:09:20;22.90;1.00
5466;DHT22;2755;50.728;7.108;2023-06-01T07:11:45;22.60;1.00
5466;DHT22;2755;50.728;7.108;2023-06-01T07:14:13;23.60;1.00
5466;DHT22;2755;50.728;7.108;2023-06-01T07:16:39;22.20;1.00
5466;DHT22;2755;50.728;7.108;2023-06-01T07:19:04;22.90;1.00
5466;DHT22;2755;50.728;7.108;2023-06-01T07:26:22;23.00;1.00
5466;DHT22;2755;50.728;7.108;2023-06-01T07:28:55;21.40;1.00
5466;DHT22;2755;50.728;7.108;2023-06-01T07:31:22;23.20;1.00
5466;DHT22;2755;50.728;7.108;2023-06-01T07:41:09;23.20;1.00
5466;DHT22;2755;50.728;7.108;2023-06-01T07:43:38;22.70;1.00
5466;DHT22;2755;50.728;7.108;2023-06-01T07:46:05;23.60;1.00
5466;DHT22;2755;50.728;7.108;2023-06-01T07:48:31;22.50;1.00
5466;DHT22;2755;50.728;7.108;2023-06-01T07:51:02;24.10;1.00
5466;DHT22;2755;50.728;7.108;2023-06-01T07:53:27;23.80;1.00
5466;DHT22;2755;50.728;7.108;2023-06-01T07:55:53;23.80;1.00
5466;DHT22;2755;50.728;7.108;2023-06-01T07:58:19;23.80;1.00
5466;DHT22;2755;50.728;7.108;2023-06-01T08:00:44;23.70;1.00
5466;DHT22;2755;50.728;7.108;2023-06-01T08:03:10;23.70;1.00
5466;DHT22;2755;50.728;7.108;2023-06-01T08:05:36;24.20;1.00
5466;DHT22;2755;50.728;7.108;2023-06-01T08:08:02;24.30;1.00
5466;DHT22;2755;50.728;7.108;2023-06-01T08:10:28;25.00;1.00
5466;DHT22;2755;50.728;7.108;2023-06-01T08:12:54;24.60;1.00
5466;DHT22;2755;50.728;7.108;2023-06-01T08:15:22;24.50;1.00
5466;DHT22;2755;50.728;7.108;2023-06-01T08:17:49;24.50;1.00
5466;DHT22;2755;50.728;7.108;2023-06-01T08:20:16;24.20;1.00
5466;DHT22;2755;50.728;7.108;2023-06-01T08:22:47;25.30;1.00
5466;DHT22;2755;50.728;7.108;2023-06-01T08:25:13;24.40;1.00
5466;DHT22;2755;50.728;7.108;2023-06-01T08:30:09;25.80;1.00
5466;DHT22;2755;50.728;7.108;2023-06-01T08:39:53;25.60;1.00
5466;DHT22;2755;50.728;7.108;2023-06-01T08:45:12;25.30;1.00
5466;DHT22;2755;50.728;7.108;2023-06-01T08:47:40;25.70;1.00
5466;DHT22;2755;50.728;7.108;2023-06-01T08:50:07;25.40;1.00
5466;DHT22;2755;50.728;7.108;2023-06-01T08:52:34;26.20;1.00
5466;DHT22;2755;50.728;7.108;2023-06-01T08:55:03;25.30;1.00
5466;DHT22;2755;50.728;7.108;2023-06-01T08:59:56;25.20;1.00
5466;DHT22;2755;50.728;7.108;2023-06-01T09:02:23;25.20;1.00
5466;DHT22;2755;50.728;7.108;2023-06-01T09:04:49;26.30;1.00
5466;DHT22;2755;50.728;7.108;2023-06-01T09:09:40;24.60;1.00
5466;DHT22;2755;50.728;7.108;2023-06-01T09:12:25;25.40;1.00
5466;DHT22;2755;50.728;7.108;2023-06-01T09:15:08;25.60;1.00
5466;DHT22;2755;50.728;7.108;2023-06-01T09:20:03;24.90;1.00
5466;DHT22;2755;50.728;7.108;2023-06-01T09:22:45;25.60;1.00
5466;DHT22;2755;50.728;7.108;2023-06-01T09:27:49;25.50;1.00
5466;DHT22;2755;50.728;7.108;2023-06-01T09:30:16;25.30;1.00
5466;DHT22;2755;50.728;7.108;2023-06-01T09:37:37;26.00;1.00
5466;DHT22;2755;50.728;7.108;2023-06-01T09:40:17;26.00;1.00
5466;DHT22;2755;50.728;7.108;2023-06-01T09:42:43;26.70;1.00
5466;DHT22;2755;50.728;7.108;2023-06-01T09:45:19;25.50;1.00
5466;DHT22;2755;50.728;7.108;2023-06-01T09:47:46;27.50;1.00
5466;DHT22;2755;50.728;7.108;2023-06-01T09:50:12;26.30;1.00
5466;DHT22;2755;50.728;7.108;2023-06-01T09:52:59;26.30;1.00
5466;DHT22;2755;50.728;7.108;2023-06-01T09:55:25;26.10;1.00
5466;DHT22;2755;50.728;7.108;2023-06-01T10:00:26;26.20;1.00
5466;DHT22;2755;50.728;7.108;2023-06-01T10:02:52;26.30;1.00
5466;DHT22;2755;50.728;7.108;2023-06-01T10:05:19;24.30;1.00
5466;DHT22;2755;50.728;7.108;2023-06-01T10:10:13;24.60;1.00
5466;DHT22;2755;50.728;7.108;2023-06-01T10:12:40;25.90;1.00
5466;DHT22;2755;50.728;7.108;2023-06-01T10:15:06;24.20;1.00
5466;DHT22;2755;50.728;7.108;2023-06-01T10:17:34;25.70;1.00
5466;DHT22;2755;50.728;7.108;2023-06-01T10:20:01;25.70;1.00
5466;DHT22;2755;50.728;7.108;2023-06-01T10:22:29;25.50;1.00
5466;DHT22;2755;50.728;7.108;2023-06-01T10:24:56;25.50;1.00
5466;DHT22;2755;50.728;7.108;2023-06-01T10:27:35;25.30;1.00
5466;DHT22;2755;50.728;7.108;2023-06-01T10:32:43;25.20;1.00
5466;DHT22;2755;50.728;7.108;2023-06-01T10:35:10;25.30;1.00
5466;DHT22;2755;50.728;7.108;2023-06-01T10:43:05;25.80;1.00
5466;DHT22;2755;50.728;7.108;2023-06-01T10:50:27;25.40;1.00
5466;DHT22;2755;50.728;7.108;2023-06-01T10:52:54;25.70;1.00
5466;DHT22;2755;50.728;7.108;2023-06-01T11:05:50;25.90;1.00
5466;DHT22;2755;50.728;7.108;2023-06-01T11:13:29;24.90;1.00
5466;DHT22;2755;50.728;7.108;2023-06-01T11:21:16;25.90;1.00
5466;DHT22;2755;50.728;7.108;2023-06-01T11:23:43;26.10;1.00
5466;DHT22;2755;50.728;7.108;2023-06-01T11:26:14;26.10;1.00
5466;DHT22;2755;50.728;7.108;2023-06-01T11:28:41;26.30;1.00
5466;DHT22;2755;50.728;7.108;2023-06-01T11:31:10;26.30;1.00
5466;DHT22;2755;50.728;7.108;2023-06-01T11:33:38;26.10;1.00
5466;DHT22;2755;50.728;7.108;2023-06-01T11:36:07;25.70;1.00
5466;DHT22;2755;50.728;7.108;2023-06-01T11:38:34;26.30;1.00
5466;DHT22;2755;50.728;7.108;2023-06-01T11:41:01;26.90;1.00
5466;DHT22;2755;50.728;7.108;2023-06-01T11:43:30;26.90;1.00
5466;DHT22;2755;50.728;7.108;2023-06-01T11:46:06;26.60;1.00
5466;DHT22;2755;50.728;7.108;2023-06-01T11:48:33;27.10;1.00
5466;DHT22;2755;50.728;7.108;2023-06-01T11:51:00;27.20;1.00
5466;DHT22;2755;50.728;7.108;2023-06-01T11:53:26;27.90;1.00
5466;DHT22;2755;50.728;7.108;2023-06-01T12:00:49;27.80;1.00
5466;DHT22;2755;50.728;7.108;2023-06-01T12:03:14;27.80;1.00
5466;DHT22;2755;50.728;7.108;2023-06-01T12:08:19;28.40;1.00
5466;DHT22;2755;50.728;7.108;2023-06-01T12:10:47;24.30;1.00
5466;DHT22;2755;50.728;7.108;2023-06-01T12:13:17;28.30;1.00
5466;DHT22;2755;50.728;7.108;2023-06-01T12:15:44;27.80;1.00
5466;DHT22;2755;50.728;7.108;2023-06-01T12:18:10;28.80;1.00
5466;DHT22;2755;50.728;7.108;2023-06-01T12:20:38;28.30;1.00
5466;DHT22;2755;50.728;7.108;2023-06-01T12:28:07;29.10;1.00
5466;DHT22;2755;50.728;7.108;2023-06-01T12:35:30;29.80;1.00
5466;DHT22;2755;50.728;7.108;2023-06-01T12:38:06;29.30;1.00
5466;DHT22;2755;50.728;7.108;2023-06-01T12:43:02;29.10;1.00
5466;DHT22;2755;50.728;7.108;2023-06-01T12:45:37;29.30;1.00
5466;DHT22;2755;50.728;7.108;2023-06-01T12:52:55;29.60;1.00
5466;DHT22;2755;50.728;7.108;2023-06-01T12:55:21;30.00;1.00
5466;DHT22;2755;50.728;7.108;2023-06-01T12:57:54;29.70;1.00
5466;DHT22;2755;50.728;7.108;2023-06-01T13:02:46;28.90;1.00
5466;DHT22;2755;50.728;7.108;2023-06-01T13:05:16;29.90;1.00
5466;DHT22;2755;50.728;7.108;2023-06-01T13:10:12;27.70;1.00
5466;DHT22;2755;50.728;7.108;2023-06-01T13:12:38;27.50;1.00
5466;DHT22;2755;50.728;7.108;2023-06-01T13:15:06;27.90;1.00
5466;DHT22;2755;50.728;7.108;2023-06-01T13:17:32;27.00;1.00
5466;DHT22;2755;50.728;7.108;2023-06-01T13:22:24;27.60;1.00
5466;DHT22;2755;50.728;7.108;2023-06-01T13:24:50;28.40;1.00
5466;DHT22;2755;50.728;7.108;2023-06-01T13:27:16;28.30;1.00
5466;DHT22;2755;50.728;7.108;2023-06-01T13:32:08;27.40;1.00
5466;DHT22;2755;50.728;7.108;2023-06-01T13:36:59;26.90;1.00
5466;DHT22;2755;50.728;7.108;2023-06-01T13:39:25;27.50;1.00
5466;DHT22;2755;50.728;7.108;2023-06-01T13:41:51;27.00;1.00
5466;DHT22;2755;50.728;7.108;2023-06-01T13:44:16;27.10;1.00
5466;DHT22;2755;50.728;7.108;2023-06-01T13:46:43;27.50;1.00
5466;DHT22;2755;50.728;7.108;2023-06-01T13:51:37;24.80;1.00
5466;DHT22;2755;50.728;7.108;2023-06-01T13:56:30;25.40;1.00
5466;DHT22;2755;50.728;7.108;2023-06-01T14:01:22;24.50;1.00
5466;DHT22;2755;50.728;7.108;2023-06-01T14:03:48;25.50;1.00
5466;DHT22;2755;50.728;7.108;2023-06-01T14:08:39;24.20;1.00
5466;DHT22;2755;50.728;7.108;2023-06-01T14:11:05;24.60;1.00
5466;DHT22;2755;50.728;7.108;2023-06-01T14:15:57;22.40;1.00
5466;DHT22;2755;50.728;7.108;2023-06-01T14:25:41;23.70;1.00
5466;DHT22;2755;50.728;7.108;2023-06-01T14:32:58;23.30;1.00
5466;DHT22;2755;50.728;7.108;2023-06-01T14:37:52;23.70;1.00
5466;DHT22;2755;50.728;7.108;2023-06-01T14:52:33;23.30;1.00
5466;DHT22;2755;50.728;7.108;2023-06-01T14:54:58;23.80;1.00
5466;DHT22;2755;50.728;7.108;2023-06-01T15:02:16;23.20;1.00
5466;DHT22;2755;50.728;7.108;2023-06-01T15:07:08;23.20;1.00
5466;DHT22;2755;50.728;7.108;2023-06-01T15:09:33;23.60;1.00
5466;DHT22;2755;50.728;7.108;2023-06-01T15:11:59;23.50;1.00
5466;DHT22;2755;50.728;7.108;2023-06-01T15:14:25;23.40;1.00
5466;DHT22;2755;50.728;7.108;2023-06-01T15:16:51;23.20;1.00
5466;DHT22;2755;50.728;7.108;2023-06-01T15:19:17;23.20;1.00
5466;DHT22;2755;50.728;7.108;2023-06-01T15:24:08;23.20;1.00
5466;DHT22;2755;50.728;7.108;2023-06-01T15:29:01;23.50;1.00
5466;DHT22;2755;50.728;7.108;2023-06-01T15:31:27;23.00;1.00
5466;DHT22;2755;50.728;7.108;2023-06-01T15:33:52;23.10;1.00
5466;DHT22;2755;50.728;7.108;2023-06-01T15:36:18;23.00;1.00
5466;DHT22;2755;50.728;7.108;2023-06-01T15:38:44;22.80;1.00
5466;DHT22;2755;50.728;7.108;2023-06-01T15:43:36;23.20;1.00
5466;DHT22;2755;50.728;7.108;2023-06-01T15:46:03;23.20;1.00
5466;DHT22;2755;50.728;7.108;2023-06-01T15:48:29;23.50;1.00
5466;DHT22;2755;50.728;7.108;2023-06-01T15:50:54;22.80;1.00
5466;DHT22;2755;50.728;7.108;2023-06-01T15:53:20;23.40;1.00
5466;DHT22;2755;50.728;7.108;2023-06-01T15:55:46;23.30;1.00
5466;DHT22;2755;50.728;7.108;2023-06-01T15:58:12;23.50;1.00
5466;DHT22;2755;50.728;7.108;2023-06-01T16:00:38;23.10;1.00
5466;DHT22;2755;50.728;7.108;2023-06-01T16:03:05;23.20;1.00
5466;DHT22;2755;50.728;7.108;2023-06-01T16:05:31;23.10;1.00
5466;DHT22;2755;50.728;7.108;2023-06-01T16:07:57;22.70;1.00
5466;DHT22;2755;50.728;7.108;2023-06-01T16:10:23;23.50;1.00
5466;DHT22;2755;50.728;7.108;2023-06-01T16:12:48;23.10;1.00
5466;DHT22;2755;50.728;7.108;2023-06-01T16:15:14;23.20;1.00
5466;DHT22;2755;50.728;7.108;2023-06-01T16:25:00;22.80;1.00
5466;DHT22;2755;50.728;7.108;2023-06-01T16:27:26;22.30;1.00
5466;DHT22;2755;50.728;7.108;2023-06-01T16:29:52;22.20;1.00
5466;DHT22;2755;50.728;7.108;2023-06-01T16:39:46;23.20;1.00
5466;DHT22;2755;50.728;7.108;2023-06-01T16:47:04;22.10;1.00
5466;DHT22;2755;50.728;7.108;2023-06-01T16:49:29;22.30;1.00
5466;DHT22;2755;50.728;7.108;2023-06-01T16:56:47;22.40;1.00
5466;DHT22;2755;50.728;7.108;2023-06-01T16:59:13;22.70;1.00
5466;DHT22;2755;50.728;7.108;2023-06-01T17:01:38;21.80;1.00
5466;DHT22;2755;50.728;7.108;2023-06-01T17:04:04;22.10;1.00
5466;DHT22;2755;50.728;7.108;2023-06-01T17:06:30;22.10;1.00
5466;DHT22;2755;50.728;7.108;2023-06-01T17:08:56;21.80;1.00
5466;DHT22;2755;50.728;7.108;2023-06-01T17:11:23;21.70;1.00
5466;DHT22;2755;50.728;7.108;2023-06-01T17:30:51;20.80;1.00
5466;DHT22;2755;50.728;7.108;2023-06-01T17:33:17;21.50;1.00
5466;DHT22;2755;50.728;7.108;2023-06-01T17:35:43;21.10;1.00
5466;DHT22;2755;50.728;7.108;2023-06-01T17:38:08;20.70;1.00
5466;DHT22;2755;50.728;7.108;2023-06-01T17:40:34;19.80;1.00
5466;DHT22;2755;50.728;7.108;2023-06-01T17:43:00;20.60;1.00
5466;DHT22;2755;50.728;7.108;2023-06-01T17:45:25;20.20;1.00
5466;DHT22;2755;50.728;7.108;2023-06-01T17:52:44;20.80;1.00
5466;DHT22;2755;50.728;7.108;2023-06-01T17:55:09;19.80;1.00
5466;DHT22;2755;50.728;7.108;2023-06-01T17:57:35;21.30;1.00
5466;DHT22;2755;50.728;7.108;2023-06-01T18:00:01;20.10;1.00
5466;DHT22;2755;50.728;7.108;2023-06-01T18:02:26;20.60;1.00
5466;DHT22;2755;50.728;7.108;2023-06-01T18:04:52;20.20;1.00
5466;DHT22;2755;50.728;7.108;2023-06-01T18:07:17;19.80;1.00
5466;DHT22;2755;50.728;7.108;2023-06-01T18:09:46;19.70;1.00
5466;DHT22;2755;50.728;7.108;2023-06-01T18:12:13;19.60;1.00
5466;DHT22;2755;50.728;7.108;2023-06-01T18:14:39;19.90;1.00
5466;DHT22;2755;50.728;7.108;2023-06-01T18:17:05;19.40;1.00
5466;DHT22;2755;50.728;7.108;2023-06-01T18:21:56;19.20;1.00
5466;DHT22;2755;50.728;7.108;2023-06-01T18:24:22;19.00;1.00
5466;DHT22;2755;50.728;7.108;2023-06-01T18:26:48;19.30;1.00
5466;DHT22;2755;50.728;7.108;2023-06-01T18:29:14;19.10;1.00
5466;DHT22;2755;50.728;7.108;2023-06-01T18:31:39;19.30;1.00
5466;DHT22;2755;50.728;7.108;2023-06-01T18:34:06;18.90;1.00
5466;DHT22;2755;50.728;7.108;2023-06-01T18:36:32;18.60;1.00
5466;DHT22;2755;50.728;7.108;2023-06-01T18:38:57;18.60;1.00
5466;DHT22;2755;50.728;7.108;2023-06-01T18:43:50;18.70;1.00
5466;DHT22;2755;50.728;7.108;2023-06-01T18:46:15;18.60;1.00
5466;DHT22;2755;50.728;7.108;2023-06-01T18:48:41;18.40;1.00
5466;DHT22;2755;50.728;7.108;2023-06-01T18:51:07;18.50;1.00
5466;DHT22;2755;50.728;7.108;2023-06-01T18:53:33;18.60;1.00
5466;DHT22;2755;50.728;7.108;2023-06-01T18:55:59;18.10;1.00
5466;DHT22;2755;50.728;7.108;2023-06-01T18:58:24;18.70;1.00
5466;DHT22;2755;50.728;7.108;2023-06-01T19:00:50;18.60;1.00
5466;DHT22;2755;50.728;7.108;2023-06-01T19:03:18;18.10;1.00
5466;DHT22;2755;50.728;7.108;2023-06-01T19:05:44;18.20;1.00
5466;DHT22;2755;50.728;7.108;2023-06-01T19:08:17;18.20;1.00
5466;DHT22;2755;50.728;7.108;2023-06-01T19:13:46;17.50;1.00
5466;DHT22;2755;50.728;7.108;2023-06-01T19:18:52;17.40;1.00
5466;DHT22;2755;50.728;7.108;2023-06-01T19:21:19;18.00;1.00
5466;DHT22;2755;50.728;7.108;2023-06-01T19:26:26;17.90;1.00
5466;DHT22;2755;50.728;7.108;2023-06-01T19:31:23;17.60;1.00
5466;DHT22;2755;50.728;7.108;2023-06-01T19:33:50;17.40;1.00
5466;DHT22;2755;50.728;7.108;2023-06-01T19:39:04;17.40;1.00
5466;DHT22;2755;50.728;7.108;2023-06-01T19:41:30;17.30;1.00
5466;DHT22;2755;50.728;7.108;2023-06-01T19:46:22;17.50;1.00
5466;DHT22;2755;50.728;7.108;2023-06-01T19:48:49;17.20;1.00
5466;DHT22;2755;50.728;7.108;2023-06-01T19:51:16;18.20;1.00
5466;DHT22;2755;50.728;7.108;2023-06-01T19:53:46;16.80;1.00
5466;DHT22;2755;50.728;7.108;2023-06-01T19:56:35;17.00;1.00
5466;DHT22;2755;50.728;7.108;2023-06-01T19:59:02;17.40;1.00
5466;DHT22;2755;50.728;7.108;2023-06-01T20:01:33;17.10;1.00
5466;DHT22;2755;50.728;7.108;2023-06-01T20:03:59;16.50;1.00
5466;DHT22;2755;50.728;7.108;2023-06-01T20:06:26;16.90;1.00
5466;DHT22;2755;50.728;7.108;2023-06-01T20:09:08;16.70;1.00
5466;DHT22;2755;50.728;7.108;2023-06-01T20:11:40;16.40;1.00
5466;DHT22;2755;50.728;7.108;2023-06-01T20:14:10;16.40;1.00
5466;DHT22;2755;50.728;7.108;2023-06-01T20:16:36;15.70;1.00
5466;DHT22;2755;50.728;7.108;2023-06-01T20:19:02;15.80;1.00
5466;DHT22;2755;50.728;7.108;2023-06-01T20:21:27;16.10;1.00
5466;DHT22;2755;50.728;7.108;2023-06-01T20:23:53;16.20;1.00
5466;DHT22;2755;50.728;7.108;2023-06-01T20:31:11;16.30;1.00
5466;DHT22;2755;50.728;7.108;2023-06-01T20:33:36;16.30;1.00
5466;DHT22;2755;50.728;7.108;2023-06-01T20:36:07;16.10;1.00
5466;DHT22;2755;50.728;7.108;2023-06-01T20:38:35;15.20;1.00
5466;DHT22;2755;50.728;7.108;2023-06-01T20:41:07;15.90;1.00
5466;DHT22;2755;50.728;7.108;2023-06-01T20:43:37;15.90;1.00
5466;DHT22;2755;50.728;7.108;2023-06-01T20:46:04;16.00;1.00
5466;DHT22;2755;50.728;7.108;2023-06-01T20:48:51;16.10;1.00
5466;DHT22;2755;50.728;7.108;2023-06-01T20:51:20;16.40;1.00
5466;DHT22;2755;50.728;7.108;2023-06-01T20:53:53;16.30;1.30
5466;DHT22;2755;50.728;7.108;2023-06-01T20:56:26;14.90;1.00
5466;DHT22;2755;50.728;7.108;2023-06-01T20:58:52;15.50;2.00
5466;DHT22;2755;50.728;7.108;2023-06-01T21:01:25;15.80;3.10
5466;DHT22;2755;50.728;7.108;2023-06-01T21:03:56;15.60;4.60
5466;DHT22;2755;50.728;7.108;2023-06-01T21:06:22;15.80;4.80
5466;DHT22;2755;50.728;7.108;2023-06-01T21:11:18;15.30;6.20
5466;DHT22;2755;50.728;7.108;2023-06-01T21:13:43;15.00;7.60
5466;DHT22;2755;50.728;7.108;2023-06-01T21:16:09;14.90;8.10